sensor_id;sensor_type;location;lat;lon;timestamp;temperature;humidity
57466;DHT22;67033;44.984;20.068;2023-03-23T02:32:04;9.00;99.90
57466;DHT22;67033;44.984;20.068;2023-03-23T02:37:27;8.80;99.90
57466;DHT22;67033;44.984;20.068;2023-03-23T02:40:01;8.80;99.90
57466;DHT22;67033;44.984;20.068;2023-03-23T02:47:36;8.50;99.90
57466;DHT22;67033;44.984;20.068;2023-03-23T02:50:03;8.50;99.90
57466;DHT22;67033;44.984;20.068;2023-03-23T02:52:33;8.60;99.90
57466;DHT22;67033;44.984;20.068;2023-03-23T02:55:00;8.80;99.90
57466;DHT22;67033;44.984;20.068;2023-03-23T02:57:28;8.70;99.90
57466;DHT22;67033;44.984;20.068;2023-03-23T02:59:54;8.70;99.90
57466;DHT22;67033;44.984;20.068;2023-03-23T03:02:44;8.70;99.90
57466;DHT22;67033;44.984;20.068;2023-03-23T03:08:24;8.70;99.90
57466;DHT22;67033;44.984;20.068;2023-03-23T03:10:59;8.70;99.90
57466;DHT22;67033;44.984;20.068;2023-03-23T03:13:35;8.60;99.90
57466;DHT22;67033;44.984;20.068;2023-03-23T06:52:23;8.60;99.90
57466;DHT22;67033;44.984;20.068;2023-03-23T06:54:50;12.40;99.90
57466;DHT22;67033;44.984;20.068;2023-03-23T06:57:16;12.60;99.90
57466;DHT22;67033;44.984;20.068;2023-03-23T06:59:43;12.90;99.90
57466;DHT22;67033;44.984;20.068;2023-03-23T07:02:13;12.80;99.90
57466;DHT22;67033;44.984;20.068;2023-03-23T07:04:40;13.00;99.90
57466;DHT22;67033;44.984;20.068;2023-03-23T07:09:34;13.50;99.90
57466;DHT22;67033;44.984;20.068;2023-03-23T07:14:26;13.60;99.90
57466;DHT22;67033;44.984;20.068;2023-03-23T07:19:19;14.10;99.90
57466;DHT22;67033;44.984;20.068;2023-03-23T07:21:45;14.50;96.50
57466;DHT22;67033;44.984;20.068;2023-03-23T07:24:14;14.70;99.90
57466;DHT22;67033;44.984;20.068;2023-03-23T07:26:40;14.60;98.00
57466;DHT22;67033;44.984;20.068;2023-03-23T07:29:08;15.10;96.80
57466;DHT22;67033;44.984;20.068;2023-03-23T07:31:34;15.50;95.00
57466;DHT22;67033;44.984;20.068;2023-03-23T07:34:00;15.60;92.70
57466;DHT22;67033;44.984;20.068;2023-03-23T07:36:26;15.70;94.30
57466;DHT22;67033;44.984;20.068;2023-03-23T07:38:52;15.80;92.30
57466;DHT22;67033;44.984;20.068;2023-03-23T07:41:19;16.00;93.30
57466;DHT22;67033;44.984;20.068;2023-03-23T07:43:45;16.30;91.60
57466;DHT22;67033;44.984;20.068;2023-03-23T07:46:12;16.40;91.50
57466;DHT22;67033;44.984;20.068;2023-03-23T07:48:38;16.60;90.20
57466;DHT22;67033;44.984;20.068;2023-03-23T07:51:05;16.70;91.00
57466;DHT22;67033;44.984;20.068;2023-03-23T07:53:31;16.80;87.80
57466;DHT22;67033;44.984;20.068;2023-03-23T07:55:57;17.10;89.50
57466;DHT22;67033;44.984;20.068;2023-03-23T07:58:23;17.30;87.20
57466;DHT22;67033;44.984;20.068;2023-03-23T11:18:40;22.50;57.90
57466;DHT22;67033;44.984;20.068;2023-03-23T11:21:11;23.40;56.00
57466;DHT22;67033;44.984;20.068;2023-03-23T11:23:43;23.40;53.80
57466;DHT22;67033;44.984;20.068;2023-03-23T11:31:33;23.20;55.80
57466;DHT22;67033;44.984;20.068;2023-03-23T11:34:02;23.10;54.30
57466;DHT22;67033;44.984;20.068;2023-03-23T11:36:41;23.10;54.50
57466;DHT22;67033;44.984;20.068;2023-03-23T11:40:14;22.90;53.20
57466;DHT22;67033;44.984;20.068;2023-03-23T11:42:23;23.10;54.70
57466;DHT22;67033;44.984;20.068;2023-03-23T11:48:09;22.90;53.40
57466;DHT22;67033;44.984;20.068;2023-03-23T11:54:32;23.00;54.90
57466;DHT22;67033;44.984;20.068;2023-03-23T11:56:56;22.90;56.30
57466;DHT22;67033;44.984;20.068;2023-03-23T11:59:29;22.70;57.00
57466;DHT22;67033;44.984;20.068;2023-03-23T12:05:10;22.80;56.80
57466;DHT22;67033;44.984;20.068;2023-03-23T12:08:08;22.90;56.90
57466;DHT22;67033;44.984;20.068;2023-03-23T12:19:29;22.90;57.80
57466;DHT22;67033;44.984;20.068;2023-03-23T12:28:19;22.80;56.00
57466;DHT22;67033;44.984;20.068;2023-03-23T12:31:06;22.70;56.50
57466;DHT22;67033;44.984;20.068;2023-03-23T12:44:47;22.80;57.00
57466;DHT22;67033;44.984;20.068;2023-03-23T12:52:51;23.00;57.50
57466;DHT22;67033;44.984;20.068;2023-03-23T12:58:01;22.80;58.20
57466;DHT22;67033;44.984;20.068;2023-03-23T13:00:55;23.00;58.90
57466;DHT22;67033;44.984;20.068;2023-03-23T13:03:33;22.90;57.80
57466;DHT22;67033;44.984;20.068;2023-03-23T13:06:12;22.80;58.00
57466;DHT22;67033;44.984;20.068;2023-03-23T13:08:56;22.90;57.80
57466;DHT22;67033;44.984;20.068;2023-03-23T13:17:20;22.90;55.20
57466;DHT22;67033;44.984;20.068;2023-03-23T13:22:48;23.00;54.30
57466;DHT22;67033;44.984;20.068;2023-03-23T13:25:49;23.10;56.20
57466;DHT22;67033;44.984;20.068;2023-03-23T13:28:18;23.10;55.20
57466;DHT22;67033;44.984;20.068;2023-03-23T13:33:34;23.10;56.80
57466;DHT22;67033;44.984;20.068;2023-03-23T13:36:05;23.10;55.80
57466;DHT22;67033;44.984;20.068;2023-03-23T13:38:33;23.00;55.30
57466;DHT22;67033;44.984;20.068;2023-03-23T13:41:10;23.00;54.90
57466;DHT22;67033;44.984;20.068;2023-03-23T13:43:39;22.90;54.80
57466;DHT22;67033;44.984;20.068;2023-03-23T13:49:02;23.00;56.60
57466;DHT22;67033;44.984;20.068;2023-03-23T13:56:47;23.30;54.90
57466;DHT22;67033;44.984;20.068;2023-03-23T14:02:39;23.10;54.40
57466;DHT22;67033;44.984;20.068;2023-03-23T14:07:58;23.20;55.30
57466;DHT22;67033;44.984;20.068;2023-03-23T14:16:03;23.10;55.30
57466;DHT22;67033;44.984;20.068;2023-03-23T14:18:38;23.20;54.50
57466;DHT22;67033;44.984;20.068;2023-03-23T14:21:05;23.30;56.90
57466;DHT22;67033;44.984;20.068;2023-03-23T14:23:35;23.40;54.60
57466;DHT22;67033;44.984;20.068;2023-03-23T14:26:12;23.30;54.20
57466;DHT22;67033;44.984;20.068;2023-03-23T14:28:44;23.30;54.80
57466;DHT22;67033;44.984;20.068;2023-03-23T14:31:30;23.20;54.90
57466;DHT22;67033;44.984;20.068;2023-03-23T14:33:56;23.20;55.40
57466;DHT22;67033;44.984;20.068;2023-03-23T14:36:28;23.00;55.80
57466;DHT22;67033;44.984;20.068;2023-03-23T14:39:04;23.00;55.70
57466;DHT22;67033;44.984;20.068;2023-03-23T14:41:33;22.80;56.50
57466;DHT22;67033;44.984;20.068;2023-03-23T14:44:01;22.80;55.10
57466;DHT22;67033;44.984;20.068;2023-03-23T14:46:30;22.70;55.70
57466;DHT22;67033;44.984;20.068;2023-03-23T14:48:58;22.60;57.40
57466;DHT22;67033;44.984;20.068;2023-03-23T14:51:24;22.50;56.70
57466;DHT22;67033;44.984;20.068;2023-03-23T14:53:53;22.30;55.60
57466;DHT22;67033;44.984;20.068;2023-03-23T14:56:22;22.10;56.00
57466;DHT22;67033;44.984;20.068;2023-03-23T14:58:52;22.00;56.30
57466;DHT22;67033;44.984;20.068;2023-03-23T15:01:28;22.00;56.70
57466;DHT22;67033;44.984;20.068;2023-03-23T15:04:06;21.90;55.00
57466;DHT22;67033;44.984;20.068;2023-03-23T15:06:35;21.90;55.80
57466;DHT22;67033;44.984;20.068;2023-03-23T15:09:05;21.80;55.20
57466;DHT22;67033;44.984;20.068;2023-03-23T15:11:34;21.70;54.20
57466;DHT22;67033;44.984;20.068;2023-03-23T15:14:19;21.60;56.30
57466;DHT22;67033;44.984;20.068;2023-03-23T15:16:50;21.70;55.80
57466;DHT22;67033;44.984;20.068;2023-03-23T15:19:36;21.90;57.10
57466;DHT22;67033;44.984;20.068;2023-03-23T15:24:44;21.80;57.90
57466;DHT22;67033;44.984;20.068;2023-03-23T15:32:41;21.60;56.80
57466;DHT22;67033;44.984;20.068;2023-03-23T15:35:19;21.50;57.00
57466;DHT22;67033;44.984;20.068;2023-03-23T15:38:01;21.60;59.50
57466;DHT22;67033;44.984;20.068;2023-03-23T15:40:34;21.50;55.60
57466;DHT22;67033;44.984;20.068;2023-03-23T15:43:28;21.50;55.70
57466;DHT22;67033;44.984;20.068;2023-03-23T15:46:04;21.40;55.30
57466;DHT22;67033;44.984;20.068;2023-03-23T15:48:51;21.30;56.60
57466;DHT22;67033;44.984;20.068;2023-03-23T15:51:20;21.30;56.40
57466;DHT22;67033;44.984;20.068;2023-03-23T15:53:49;21.20;56.00
57466;DHT22;67033;44.984;20.068;2023-03-23T15:56:16;21.20;55.70
57466;DHT22;67033;44.984;20.068;2023-03-23T15:58:42;21.20;57.90
57466;DHT22;67033;44.984;20.068;2023-03-23T16:01:20;21.20;57.60
57466;DHT22;67033;44.984;20.068;2023-03-23T16:03:51;21.20;58.00
57466;DHT22;67033;44.984;20.068;2023-03-23T16:06:20;21.10;57.50
57466;DHT22;67033;44.984;20.068;2023-03-23T16:08:47;21.00;57.00
57466;DHT22;67033;44.984;20.068;2023-03-23T16:11:16;21.00;58.80
57466;DHT22;67033;44.984;20.068;2023-03-23T16:13:42;20.90;58.50
57466;DHT22;67033;44.984;20.068;2023-03-23T16:16:33;20.80;58.20
57466;DHT22;67033;44.984;20.068;2023-03-23T16:18:59;20.80;59.00
57466;DHT22;67033;44.984;20.068;2023-03-23T16:21:25;20.70;59.70
57466;DHT22;67033;44.984;20.068;2023-03-23T16:23:51;20.60;58.80
57466;DHT22;67033;44.984;20.068;2023-03-23T16:26:17;20.50;61.30
57466;DHT22;67033;44.984;20.068;2023-03-23T16:28:43;20.40;62.00
57466;DHT22;67033;44.984;20.068;2023-03-23T16:31:10;20.20;63.00
57466;DHT22;67033;44.984;20.068;2023-03-23T16:33:36;20.10;63.10
57466;DHT22;67033;44.984;20.068;2023-03-23T16:36:02;19.90;63.70
57466;DHT22;67033;44.984;20.068;2023-03-23T16:38:28;19.90;64.70
57466;DHT22;67033;44.984;20.068;2023-03-23T16:40:54;19.80;65.20
57466;DHT22;67033;44.984;20.068;2023-03-23T16:43:21;19.70;64.70
57466;DHT22;67033;44.984;20.068;2023-03-23T16:45:47;19.60;64.90
57466;DHT22;67033;44.984;20.068;2023-03-23T16:48:14;19.70;70.40
57466;DHT22;67033;44.984;20.068;2023-03-23T16:50:42;19.40;65.30
57466;DHT22;67033;44.984;20.068;2023-03-23T16:53:08;19.40;65.70
57466;DHT22;67033;44.984;20.068;2023-03-23T16:55:36;19.30;65.70
57466;DHT22;67033;44.984;20.068;2023-03-23T16:58:02;19.20;65.10
57466;DHT22;67033;44.984;20.068;2023-03-23T17:00:28;19.10;65.50
57466;DHT22;67033;44.984;20.068;2023-03-23T17:02:55;19.00;65.60
57466;DHT22;67033;44.984;20.068;2023-03-23T17:05:26;19.00;65.10
57466;DHT22;67033;44.984;20.068;2023-03-23T17:07:56;18.80;65.60
57466;DHT22;67033;44.984;20.068;2023-03-23T17:10:23;18.60;66.10
57466;DHT22;67033;44.984;20.068;2023-03-23T17:12:49;18.60;66.90
57466;DHT22;67033;44.984;20.068;2023-03-23T17:15:15;18.60;67.80
57466;DHT22;67033;44.984;20.068;2023-03-23T17:17:41;18.60;67.40
57466;DHT22;67033;44.984;20.068;2023-03-23T17:20:08;18.50;67.70
57466;DHT22;67033;44.984;20.068;2023-03-23T17:22:36;18.50;68.20
57466;DHT22;67033;44.984;20.068;2023-03-23T17:25:02;18.50;68.40
57466;DHT22;67033;44.984;20.068;2023-03-23T17:27:28;18.40;67.90
57466;DHT22;67033;44.984;20.068;2023-03-23T17:29:54;18.30;71.50
57466;DHT22;67033;44.984;20.068;2023-03-23T17:32:21;18.30;68.60
57466;DHT22;67033;44.984;20.068;2023-03-23T17:34:49;18.20;69.30
57466;DHT22;67033;44.984;20.068;2023-03-23T17:37:15;18.20;69.40
57466;DHT22;67033;44.984;20.068;2023-03-23T17:39:41;18.10;68.70
57466;DHT22;67033;44.984;20.068;2023-03-23T17:42:07;18.10;69.50
57466;DHT22;67033;44.984;20.068;2023-03-23T17:44:33;18.10;69.90
57466;DHT22;67033;44.984;20.068;2023-03-23T17:46:59;18.00;69.40
57466;DHT22;67033;44.984;20.068;2023-03-23T17:49:26;17.90;69.40
57466;DHT22;67033;44.984;20.068;2023-03-23T17:51:52;17.90;71.00
57466;DHT22;67033;44.984;20.068;2023-03-23T17:54:18;17.90;70.30
57466;DHT22;67033;44.984;20.068;2023-03-23T17:56:43;17.80;70.40
57466;DHT22;67033;44.984;20.068;2023-03-23T17:59:10;17.70;69.60
57466;DHT22;67033;44.984;20.068;2023-03-23T18:01:36;17.70;70.40
57466;DHT22;67033;44.984;20.068;2023-03-23T18:04:03;17.60;70.20
57466;DHT22;67033;44.984;20.068;2023-03-23T18:06:29;17.60;71.00
57466;DHT22;67033;44.984;20.068;2023-03-23T18:08:55;17.60;71.40
57466;DHT22;67033;44.984;20.068;2023-03-23T18:11:20;17.60;71.40
57466;DHT22;67033;44.984;20.068;2023-03-23T18:13:46;17.60;71.40
57466;DHT22;67033;44.984;20.068;2023-03-23T18:16:12;17.40;69.40
57466;DHT22;67033;44.984;20.068;2023-03-23T18:18:38;17.40;71.20
57466;DHT22;67033;44.984;20.068;2023-03-23T18:21:06;17.30;69.90
57466;DHT22;67033;44.984;20.068;2023-03-23T18:23:33;17.30;71.00
57466;DHT22;67033;44.984;20.068;2023-03-23T18:26:08;17.20;71.90
57466;DHT22;67033;44.984;20.068;2023-03-23T18:28:35;17.00;71.40
57466;DHT22;67033;44.984;20.068;2023-03-23T18:31:10;17.00;71.40
57466;DHT22;67033;44.984;20.068;2023-03-23T18:33:37;16.70;71.10
57466;DHT22;67033;44.984;20.068;2023-03-23T18:36:07;16.80;71.50
57466;DHT22;67033;44.984;20.068;2023-03-23T18:38:33;16.50;72.10
57466;DHT22;67033;44.984;20.068;2023-03-23T18:40:59;16.30;71.80
57466;DHT22;67033;44.984;20.068;2023-03-23T18:43:25;16.20;71.90
57466;DHT22;67033;44.984;20.068;2023-03-23T18:45:55;16.20;71.70
57466;DHT22;67033;44.984;20.068;2023-03-23T18:48:22;16.30;72.30
57466;DHT22;67033;44.984;20.068;2023-03-23T18:58:09;16.30;72.10
57466;DHT22;67033;44.984;20.068;2023-03-23T19:00:36;16.10;71.70
57466;DHT22;67033;44.984;20.068;2023-03-23T19:03:02;16.10;72.50
57466;DHT22;67033;44.984;20.068;2023-03-23T19:05:29;16.10;72.30
57466;DHT22;67033;44.984;20.068;2023-03-23T19:07:55;16.00;85.40
57466;DHT22;67033;44.984;20.068;2023-03-23T19:10:23;16.00;72.90
57466;DHT22;67033;44.984;20.068;2023-03-23T19:12:49;15.80;72.90
57466;DHT22;67033;44.984;20.068;2023-03-23T19:15:15;15.70;73.00
57466;DHT22;67033;44.984;20.068;2023-03-23T19:17:42;15.70;73.30
57466;DHT22;67033;44.984;20.068;2023-03-23T19:20:09;15.70;73.50
57466;DHT22;67033;44.984;20.068;2023-03-23T19:22:39;15.70;73.50
57466;DHT22;67033;44.984;20.068;2023-03-23T19:25:06;15.60;73.70
57466;DHT22;67033;44.984;20.068;2023-03-23T19:27:33;15.50;73.60
57466;DHT22;67033;44.984;20.068;2023-03-23T19:29:59;15.50;73.90
57466;DHT22;67033;44.984;20.068;2023-03-23T19:32:25;15.50;74.10
57466;DHT22;67033;44.984;20.068;2023-03-23T19:34:51;15.40;74.00
57466;DHT22;67033;44.984;20.068;2023-03-23T19:37:17;15.40;74.70
57466;DHT22;67033;44.984;20.068;2023-03-23T19:39:43;15.30;74.40
57466;DHT22;67033;44.984;20.068;2023-03-23T19:42:09;15.30;74.50
57466;DHT22;67033;44.984;20.068;2023-03-23T19:44:35;15.20;74.70
57466;DHT22;67033;44.984;20.068;2023-03-23T19:47:01;15.10;75.10
57466;DHT22;67033;44.984;20.068;2023-03-23T19:49:27;15.10;75.00
57466;DHT22;67033;44.984;20.068;2023-03-23T19:51:54;15.10;74.60
57466;DHT22;67033;44.984;20.068;2023-03-23T19:54:20;15.10;75.10
57466;DHT22;67033;44.984;20.068;2023-03-23T19:56:46;15.00;75.30
57466;DHT22;67033;44.984;20.068;2023-03-23T19:59:13;15.00;75.40
57466;DHT22;67033;44.984;20.068;2023-03-23T20:01:41;14.90;75.60
57466;DHT22;67033;44.984;20.068;2023-03-23T20:04:08;14.80;75.60
57466;DHT22;67033;44.984;20.068;2023-03-23T20:06:34;14.80;75.90
57466;DHT22;67033;44.984;20.068;2023-03-23T20:09:01;14.70;76.00
57466;DHT22;67033;44.984;20.068;2023-03-23T20:11:27;14.60;76.50
57466;DHT22;67033;44.984;20.068;2023-03-23T20:13:53;14.60;76.90
57466;DHT22;67033;44.984;20.068;2023-03-23T20:16:19;14.60;77.10
57466;DHT22;67033;44.984;20.068;2023-03-23T20:18:45;14.60;76.80
57466;DHT22;67033;44.984;20.068;2023-03-23T20:21:14;14.50;77.80
57466;DHT22;67033;44.984;20.068;2023-03-23T20:23:41;14.50;77.00
57466;DHT22;67033;44.984;20.068;2023-03-23T20:26:13;14.40;77.30
57466;DHT22;67033;44.984;20.068;2023-03-23T20:28:40;14.50;77.50
57466;DHT22;67033;44.984;20.068;2023-03-23T20:31:18;14.40;77.40
57466;DHT22;67033;44.984;20.068;2023-03-23T20:33:45;14.30;78.40
57466;DHT22;67033;44.984;20.068;2023-03-23T20:36:12;14.10;78.20
57466;DHT22;67033;44.984;20.068;2023-03-23T20:38:39;14.10;78.80
57466;DHT22;67033;44.984;20.068;2023-03-23T20:41:08;14.10;79.90
57466;DHT22;67033;44.984;20.068;2023-03-23T20:43:41;14.10;79.70
57466;DHT22;67033;44.984;20.068;2023-03-23T20:46:09;14.00;79.80
57466;DHT22;67033;44.984;20.068;2023-03-23T20:48:37;14.00;80.00
57466;DHT22;67033;44.984;20.068;2023-03-23T21:27:50;13.90;80.30
57466;DHT22;67033;44.984;20.068;2023-03-23T21:30:19;13.50;83.00
57466;DHT22;67033;44.984;20.068;2023-03-23T21:32:45;13.50;83.00
57466;DHT22;67033;44.984;20.068;2023-03-23T21:35:11;13.50;83.60
57466;DHT22;67033;44.984;20.068;2023-03-23T21:37:37;13.40;83.00
57466;DHT22;67033;44.984;20.068;2023-03-23T21:40:05;13.40;83.60
57466;DHT22;67033;44.984;20.068;2023-03-23T21:42:32;13.20;84.60
57466;DHT22;67033;44.984;20.068;2023-03-23T21:45:01;13.10;85.50
57466;DHT22;67033;44.984;20.068;2023-03-23T21:47:28;12.90;86.00
57466;DHT22;67033;44.984;20.068;2023-03-23T21:49:57;12.90;86.30
57466;DHT22;67033;44.984;20.068;2023-03-23T21:52:25;12.80;87.00
57466;DHT22;67033;44.984;20.068;2023-03-23T21:54:51;12.80;87.60
57466;DHT22;67033;44.984;20.068;2023-03-23T21:57:18;12.80;88.40
57466;DHT22;67033;44.984;20.068;2023-03-23T21:59:45;12.80;89.20
57466;DHT22;67033;44.984;20.068;2023-03-23T22:02:13;12.70;93.50
57466;DHT22;67033;44.984;20.068;2023-03-23T22:04:39;12.40;90.50
57466;DHT22;67033;44.984;20.068;2023-03-23T22:07:05;12.40;91.10
57466;DHT22;67033;44.984;20.068;2023-03-23T22:09:33;12.30;91.40
57466;DHT22;67033;44.984;20.068;2023-03-23T22:12:01;12.30;91.70
57466;DHT22;67033;44.984;20.068;2023-03-23T22:14:27;12.20;92.00
57466;DHT22;67033;44.984;20.068;2023-03-23T22:16:53;12.20;92.30
57466;DHT22;67033;44.984;20.068;2023-03-23T22:19:19;12.20;92.30
57466;DHT22;67033;44.984;20.068;2023-03-23T22:21:46;12.20;92.20
57466;DHT22;67033;44.984;20.068;2023-03-23T22:24:12;12.20;92.40
57466;DHT22;67033;44.984;20.068;2023-03-23T22:26:38;12.20;92.60
57466;DHT22;67033;44.984;20.068;2023-03-23T22:29:04;12.20;92.80
57466;DHT22;67033;44.984;20.068;2023-03-23T22:31:32;12.10;93.10
57466;DHT22;67033;44.984;20.068;2023-03-23T22:33:59;12.10;93.10
57466;DHT22;67033;44.984;20.068;2023-03-23T22:36:27;12.10;93.30
57466;DHT22;67033;44.984;20.068;2023-03-23T22:38:54;12.10;93.30
57466;DHT22;67033;44.984;20.068;2023-03-23T22:41:27;12.20;93.20
57466;DHT22;67033;44.984;20.068;2023-03-23T22:43:54;12.20;93.20
57466;DHT22;67033;44.984;20.068;2023-03-23T22:46:21;12.10;93.40
57466;DHT22;67033;44.984;20.068;2023-03-23T22:48:47;12.00;93.50
57466;DHT22;67033;44.984;20.068;2023-03-23T22:51:14;12.00;93.90
57466;DHT22;67033;44.984;20.068;2023-03-23T22:53:41;12.00;94.20
57466;DHT22;67033;44.984;20.068;2023-03-23T22:56:07;12.00;94.40
57466;DHT22;67033;44.984;20.068;2023-03-23T22:58:34;11.90;94.90
57466;DHT22;67033;44.984;20.068;2023-03-23T23:01:02;12.00;95.00
57466;DHT22;67033;44.984;20.068;2023-03-23T23:03:29;12.00;94.70
57466;DHT22;67033;44.984;20.068;2023-03-23T23:05:57;11.90;95.50
57466;DHT22;67033;44.984;20.068;2023-03-23T23:08:24;11.90;95.90
57466;DHT22;67033;44.984;20.068;2023-03-23T23:10:54;11.80;95.80
57466;DHT22;67033;44.984;20.068;2023-03-23T23:13:21;11.90;96.60
57466;DHT22;67033;44.984;20.068;2023-03-23T23:15:50;11.90;97.00
57466;DHT22;67033;44.984;20.068;2023-03-23T23:18:17;12.00;96.80
57466;DHT22;67033;44.984;20.068;2023-03-23T23:20:46;11.90;96.70
57466;DHT22;67033;44.984;20.068;2023-03-23T23:23:12;11.90;97.60
57466;DHT22;67033;44.984;20.068;2023-03-23T23:25:38;11.90;96.80
57466;DHT22;67033;44.984;20.068;2023-03-23T23:28:05;12.00;97.40
57466;DHT22;67033;44.984;20.068;2023-03-23T23:30:31;11.90;98.00
57466;DHT22;67033;44.984;20.068;2023-03-23T23:32:57;11.90;98.20
57466;DHT22;67033;44.984;20.068;2023-03-23T23:35:23;11.90;98.50
57466;DHT22;67033;44.984;20.068;2023-03-23T23:37:49;11.90;98.80
57466;DHT22;67033;44.984;20.068;2023-03-23T23:40:16;11.80;99.10
57466;DHT22;67033;44.984;20.068;2023-03-23T23:42:45;11.80;99.70
57466;DHT22;67033;44.984;20.068;2023-03-23T23:45:13;11.70;99.90
57466;DHT22;67033;44.984;20.068;2023-03-23T23:47:40;11.70;99.90
57466;DHT22;67033;44.984;20.068;2023-03-23T23:50:08;11.70;99.90
57466;DHT22;67033;44.984;20.068;2023-03-23T23:55:02;11.60;99.90
57466;DHT22;67033;44.984;20.068;2023-03-23T23:57:28;11.60;99.90
57466;DHT22;67033;44.984;20.068;2023-03-23T23:59:54;11.60;99.90
